createdAt,value
2023-04-22T00:02:14.840Z,97782.47
2023-04-22T00:05:00.386Z,97795.97
2023-04-22T00:07:45.913Z,97796.13
2023-04-22T00:10:31.162Z,97771.91
2023-04-22T00:13:16.302Z,97796.00
2023-04-22T00:16:01.493Z,97796.56
2023-04-22T00:18:46.948Z,97809.88
2023-04-22T00:21:32.279Z,97753.66
2023-04-22T00:24:17.843Z,97794.34
2023-04-22T00:27:03.117Z,97795.66
2023-04-22T00:29:48.716Z,97716.19
2023-04-22T00:32:34.397Z,97788.75
2023-04-22T00:35:19.673Z,97788.31
2023-04-22T00:38:05.166Z,97767.63
2023-04-22T00:40:50.758Z,97706.66
2023-04-22T00:43:37.083Z,97791.66
2023-04-22T00:46:23.696Z,97794.91
2023-04-22T00:49:08.950Z,97759.53
2023-04-22T00:51:54.270Z,97785.16
2023-04-22T00:54:40.033Z,97782.78
2023-04-22T00:57:26.353Z,97735.28
2023-04-22T01:00:13.464Z,97793.75
2023-04-22T01:02:59.184Z,97783.19
2023-04-22T01:05:45.303Z,97764.50
2023-04-22T01:08:30.469Z,97790.06
2023-04-22T01:11:16.287Z,97787.22
2023-04-22T01:14:02.607Z,97790.09
2023-04-22T01:16:47.965Z,97795.28
2023-04-22T01:19:33.517Z,97796.75
2023-04-22T01:22:19.448Z,97797.53
2023-04-22T01:25:05.204Z,97795.50
2023-04-22T01:27:50.780Z,97803.78
2023-04-22T01:30:37.030Z,97796.09
2023-04-22T01:33:22.203Z,97762.28
2023-04-22T01:36:08.798Z,97802.22
2023-04-22T01:38:54.886Z,97770.91
2023-04-22T01:41:40.763Z,97806.31
2023-04-22T01:44:26.734Z,97792.47
2023-04-22T01:47:11.881Z,97808.47
2023-04-22T01:49:57.355Z,97811.06
2023-04-22T01:52:42.863Z,97799.75
2023-04-22T01:55:28.394Z,97807.44
2023-04-22T01:58:14.055Z,97806.88
2023-04-22T02:00:59.777Z,97812.53
2023-04-22T02:03:45.160Z,97803.59
2023-04-22T02:06:31.844Z,97811.94
2023-04-22T02:09:17.031Z,97814.22
2023-04-22T02:12:02.504Z,97803.50
2023-04-22T02:14:47.647Z,97734.31
2023-04-22T02:17:33.072Z,97814.00
2023-04-22T02:20:18.429Z,97807.53
2023-04-22T02:23:04.152Z,97811.47
2023-04-22T02:25:51.012Z,97751.78
2023-04-22T02:28:37.173Z,97807.59
2023-04-22T02:31:22.835Z,97806.84
2023-04-22T02:34:08.137Z,97803.50
2023-04-22T02:36:53.605Z,97807.78
2023-04-22T02:39:39.267Z,97802.56
2023-04-22T02:42:25.267Z,97807.78
2023-04-22T02:45:11.290Z,97809.66
2023-04-22T02:47:56.614Z,97810.28
2023-04-22T02:50:41.699Z,97801.41
2023-04-22T02:53:26.929Z,97795.38
2023-04-22T02:56:12.125Z,97791.88
2023-04-22T02:58:57.622Z,97799.50
2023-04-22T03:01:43.147Z,97790.34
2023-04-22T03:04:34.171Z,97796.66
2023-04-22T03:07:20.049Z,97793.84
2023-04-22T03:10:06.189Z,97799.06
2023-04-22T03:12:52.626Z,97798.47
2023-04-22T03:15:42.747Z,97806.53
2023-04-22T03:18:28.321Z,97730.69
2023-04-22T03:21:13.405Z,97803.50
2023-04-22T03:23:59.436Z,97800.44
2023-04-22T03:26:46.164Z,97806.34
2023-04-22T03:29:31.794Z,97795.50
2023-04-22T03:32:17.457Z,97800.00
2023-04-22T03:35:03.008Z,97740.22
2023-04-22T03:37:48.600Z,97784.78
2023-04-22T03:40:37.746Z,97788.59
2023-04-22T03:43:31.205Z,97803.44
2023-04-22T03:46:22.748Z,97798.69
2023-04-22T03:49:18.859Z,97796.91
2023-04-22T03:52:04.205Z,97799.00
2023-04-22T03:54:49.815Z,97783.94
2023-04-22T03:57:35.278Z,97805.19
2023-04-22T04:00:20.755Z,97795.81
2023-04-22T04:03:15.677Z,97785.88
2023-04-22T04:06:02.360Z,97767.41
2023-04-22T04:08:48.000Z,97802.47
2023-04-22T04:11:33.742Z,97801.47
2023-04-22T04:14:19.257Z,97806.53
2023-04-22T04:17:06.314Z,97785.97
2023-04-22T04:19:53.342Z,97799.34
2023-04-22T04:22:39.279Z,97754.97
2023-04-22T04:25:25.966Z,97799.78
2023-04-22T04:28:12.150Z,97806.47
2023-04-22T04:30:58.177Z,97771.25
2023-04-22T04:33:43.272Z,97794.63
2023-04-22T04:36:28.672Z,97789.63
2023-04-22T04:39:19.213Z,97799.84
2023-04-22T04:42:04.974Z,97801.13
2023-04-22T04:44:58.096Z,97795.97
2023-04-22T04:47:44.318Z,97785.41
2023-04-22T04:50:38.927Z,97797.63
2023-04-22T04:53:24.592Z,97787.22
2023-04-22T04:56:10.223Z,97749.16
2023-04-22T04:58:56.059Z,97790.53
2023-04-22T05:01:43.842Z,97788.81
2023-04-22T05:04:31.516Z,97768.28
2023-04-22T05:07:17.153Z,97793.38
2023-04-22T05:10:04.115Z,97800.69
2023-04-22T05:12:52.035Z,97795.72
2023-04-22T05:15:41.406Z,97776.34
2023-04-22T05:18:26.811Z,97788.69
2023-04-22T05:21:13.153Z,97772.94
2023-04-22T05:23:59.287Z,97792.13
2023-04-22T05:26:44.831Z,97800.84
2023-04-22T05:29:35.132Z,97798.38
2023-04-22T05:32:22.194Z,97746.94
2023-04-22T05:35:09.112Z,97727.22
2023-04-22T05:37:54.826Z,97790.56
2023-04-22T05:40:39.995Z,97794.44
2023-04-22T05:43:28.368Z,97789.88
2023-04-22T05:46:24.394Z,97795.25
2023-04-22T05:49:10.199Z,97792.50
2023-04-22T05:52:15.499Z,97785.72
2023-04-22T05:55:12.322Z,97802.66
2023-04-22T05:57:58.055Z,97786.56
2023-04-22T06:00:55.353Z,97796.22
2023-04-22T06:04:00.967Z,97784.06
2023-04-22T06:06:46.768Z,97794.56
2023-04-22T06:09:32.030Z,97794.97
2023-04-22T06:12:17.553Z,97796.38
2023-04-22T06:15:02.912Z,97778.56
2023-04-22T06:17:49.082Z,97772.81
2023-04-22T06:20:34.557Z,97783.72
2023-04-22T06:23:19.864Z,97778.97
2023-04-22T06:26:06.181Z,97778.16
2023-04-22T06:28:52.835Z,97778.50
2023-04-22T06:31:38.792Z,97775.16
2023-04-22T06:34:24.307Z,97781.63
2023-04-22T06:37:10.961Z,97784.88
2023-04-22T06:39:56.911Z,97777.06
2023-04-22T06:43:13.855Z,97784.34
2023-04-22T06:46:25.576Z,97788.22
2023-04-22T06:49:10.827Z,97784.91
2023-04-22T06:52:24.261Z,97784.50
2023-04-22T06:55:12.161Z,97793.06
2023-04-22T06:57:57.740Z,97790.66
2023-04-22T07:00:43.208Z,97778.81
2023-04-22T07:03:28.759Z,97779.47
2023-04-22T07:06:20.737Z,97768.13
2023-04-22T07:09:06.626Z,97775.34
2023-04-22T07:11:52.708Z,97767.72
2023-04-22T07:14:45.827Z,97688.63
2023-04-22T07:17:32.649Z,97756.38
2023-04-22T07:20:18.158Z,97755.56
2023-04-22T07:23:03.313Z,97755.66
2023-04-22T07:25:48.840Z,97753.75
2023-04-22T07:28:34.269Z,97757.66
2023-04-22T07:31:19.861Z,97757.19
2023-04-22T07:34:04.932Z,97696.06
2023-04-22T07:36:53.099Z,97748.03
2023-04-22T07:39:39.010Z,97748.34
2023-04-22T07:42:25.017Z,97752.44
2023-04-22T07:45:10.357Z,97762.16
2023-04-22T07:47:55.993Z,97740.25
2023-04-22T07:54:48.957Z,97568.97
2023-04-22T07:57:36.124Z,97764.69
2023-04-22T08:00:23.529Z,97761.28
2023-04-22T08:03:09.138Z,97749.28
2023-04-22T08:05:54.747Z,97745.00
2023-04-22T08:08:39.951Z,97746.78
2023-04-22T08:11:25.341Z,97749.31
2023-04-22T08:14:10.795Z,97747.31
2023-04-22T08:16:56.626Z,97748.22
2023-04-22T08:19:42.142Z,97751.59
2023-04-22T08:22:27.488Z,97739.50
2023-04-22T08:25:12.809Z,97744.13
2023-04-22T08:27:58.243Z,97738.41
2023-04-22T08:30:43.603Z,97731.34
2023-04-22T08:33:28.748Z,97678.78
2023-04-22T08:36:14.422Z,97724.41
2023-04-22T08:39:00.557Z,97727.38
2023-04-22T08:41:46.194Z,97666.84
2023-04-22T08:44:31.867Z,97719.28
2023-04-22T08:47:19.358Z,97716.69
2023-04-22T08:50:05.709Z,97664.59
2023-04-22T08:52:51.620Z,97672.75
2023-04-22T08:55:38.596Z,97705.19
2023-04-22T08:58:25.175Z,97692.09
2023-04-22T09:01:31.294Z,97663.41
2023-04-22T09:04:18.715Z,97635.25
2023-04-22T09:07:05.214Z,97686.75
2023-04-22T09:09:51.083Z,97659.31
2023-04-22T09:12:38.876Z,97673.53
2023-04-22T09:15:25.588Z,97680.56
2023-04-22T09:18:10.980Z,97684.47
2023-04-22T09:20:56.595Z,97680.06
2023-04-22T09:23:53.520Z,97632.09
2023-04-22T09:26:40.830Z,97690.34
2023-04-22T09:29:30.480Z,97674.81
2023-04-22T09:32:16.674Z,97680.28
2023-04-22T09:35:02.402Z,97695.28
2023-04-22T09:37:51.651Z,97671.66
2023-04-22T09:40:38.571Z,97688.31
2023-04-22T09:43:24.449Z,97679.91
2023-04-22T09:46:10.526Z,97688.97
2023-04-22T09:48:56.569Z,97684.47
2023-04-22T09:51:41.779Z,97690.38
2023-04-22T09:54:27.105Z,97681.84
2023-04-22T09:57:12.802Z,97681.53
2023-04-22T09:59:58.916Z,97681.72
2023-04-22T10:02:44.603Z,97672.28
2023-04-22T10:05:30.040Z,97677.09
2023-04-22T10:08:16.954Z,97674.75
2023-04-22T10:11:02.850Z,97672.22
2023-04-22T10:13:48.614Z,97673.59
2023-04-22T10:16:35.414Z,97662.34
2023-04-22T10:19:22.897Z,97669.84
2023-04-22T10:22:10.919Z,97622.13
2023-04-22T10:24:56.469Z,97670.06
2023-04-22T10:27:41.988Z,97622.41
2023-04-22T10:30:29.433Z,97667.28
2023-04-22T10:33:20.628Z,97665.88
2023-04-22T10:36:26.421Z,97661.84
2023-04-22T10:39:15.658Z,97657.84
2023-04-22T10:42:04.113Z,97656.19
2023-04-22T10:44:54.135Z,97646.91
2023-04-22T10:47:40.323Z,97659.25
2023-04-22T10:50:27.000Z,97656.03
2023-04-22T10:53:37.362Z,97646.94
2023-04-22T10:56:22.829Z,97646.75
2023-04-22T10:59:17.008Z,97645.09
2023-04-22T11:02:03.500Z,97633.19
2023-04-22T11:04:50.038Z,97639.31
2023-04-22T11:07:35.325Z,97635.03
2023-04-22T11:13:26.929Z,97629.34
2023-04-22T11:16:12.268Z,97630.16
2023-04-22T11:18:58.582Z,97620.34
2023-04-22T11:21:44.403Z,97614.78
2023-04-22T11:24:29.656Z,97627.69
2023-04-22T11:27:14.976Z,97600.03
2023-04-22T11:30:17.511Z,97612.94
2023-04-22T11:33:02.855Z,97614.09
2023-04-22T11:35:49.548Z,97619.25
2023-04-22T11:38:34.673Z,97613.13
2023-04-22T11:41:23.319Z,97609.72
2023-04-22T11:44:09.617Z,97580.88
2023-04-22T11:46:57.074Z,97624.59
2023-04-22T11:49:54.137Z,97611.81
2023-04-22T11:52:55.111Z,97615.28
2023-04-22T11:55:41.416Z,97608.19
2023-04-22T11:58:27.735Z,97568.59
2023-04-22T12:01:13.597Z,97610.34
2023-04-22T12:04:02.302Z,97605.00
2023-04-22T12:06:47.682Z,97611.72
2023-04-22T12:09:35.697Z,97606.06
2023-04-22T12:12:27.180Z,97611.16
2023-04-22T12:15:13.851Z,97589.25
2023-04-22T12:18:02.026Z,97599.91
2023-04-22T12:20:47.305Z,97598.59
2023-04-22T12:23:53.253Z,97592.03
2023-04-22T12:26:38.474Z,97592.03
2023-04-22T12:29:32.147Z,97587.66
2023-04-22T12:32:17.656Z,97583.06
2023-04-22T12:35:02.924Z,97584.84
2023-04-22T12:37:49.947Z,97574.56
2023-04-22T12:40:35.662Z,97568.69
2023-04-22T12:43:21.041Z,97583.97
2023-04-22T12:46:08.051Z,97571.50
2023-04-22T12:48:53.154Z,97571.59
2023-04-22T12:51:38.480Z,97561.50
2023-04-22T12:54:23.964Z,97573.66
2023-04-22T12:57:09.596Z,97558.53
2023-04-22T12:59:55.173Z,97561.19
2023-04-22T13:02:44.825Z,97559.88
2023-04-22T13:05:30.238Z,97562.06
2023-04-22T13:08:17.375Z,97532.59
2023-04-22T13:11:02.726Z,97549.28
2023-04-22T13:13:48.075Z,97552.34
2023-04-22T13:16:33.339Z,97561.09
2023-04-22T13:19:18.626Z,97551.81
2023-04-22T13:22:04.075Z,97540.22
2023-04-22T13:24:49.658Z,97542.34
2023-04-22T13:27:35.847Z,97535.94
2023-04-22T13:30:21.528Z,97533.53
2023-04-22T13:33:06.973Z,97531.94
2023-04-22T13:35:52.543Z,97487.75
2023-04-22T13:38:37.966Z,97481.34
2023-04-22T13:41:23.503Z,97519.47
2023-04-22T13:44:11.715Z,97532.00
2023-04-22T13:46:56.951Z,97521.53
2023-04-22T13:49:42.357Z,97526.81
2023-04-22T13:52:27.738Z,97523.72
2023-04-22T13:55:13.127Z,97518.16
2023-04-22T13:57:58.504Z,97517.94
2023-04-22T14:00:43.842Z,97519.09
2023-04-22T14:03:29.381Z,97518.25
2023-04-22T14:06:14.955Z,97514.72
2023-04-22T14:09:00.269Z,97504.34
2023-04-22T14:11:45.812Z,97501.47
2023-04-22T14:14:31.162Z,97447.41
2023-04-22T14:17:16.382Z,97498.19
2023-04-22T14:20:01.733Z,97450.44
2023-04-22T14:22:47.098Z,97494.94
2023-04-22T14:25:32.718Z,97482.34
2023-04-22T14:28:19.258Z,97489.19
2023-04-22T14:31:04.881Z,97486.81
2023-04-22T14:33:50.965Z,97483.09
2023-04-22T14:36:36.542Z,97479.91
2023-04-22T14:39:21.878Z,97477.53
2023-04-22T14:42:07.207Z,97476.16
2023-04-22T14:44:52.706Z,97482.88
2023-04-22T14:47:38.163Z,97475.63
2023-04-22T14:50:23.940Z,97469.41
2023-04-22T14:53:09.218Z,97466.72
2023-04-22T14:55:54.675Z,97463.56
2023-04-22T14:58:40.283Z,97462.66
2023-04-22T15:01:26.453Z,97461.06
2023-04-22T15:04:12.405Z,97439.34
2023-04-22T15:06:58.049Z,97410.00
2023-04-22T15:09:44.016Z,97463.53
2023-04-22T15:12:29.559Z,97448.75
2023-04-22T15:15:15.423Z,97452.59
2023-04-22T15:18:00.674Z,97448.25
2023-04-22T15:20:46.209Z,97452.81
2023-04-22T15:23:31.563Z,97444.31
2023-04-22T15:26:16.807Z,97429.94
2023-04-22T15:29:02.256Z,97456.09
2023-04-22T15:31:47.482Z,97440.41
2023-04-22T15:34:32.974Z,97439.00
2023-04-22T15:37:18.088Z,97414.56
2023-04-22T15:40:05.680Z,97427.13
2023-04-22T15:42:51.075Z,97428.06
2023-04-22T15:45:36.785Z,97439.59
2023-04-22T15:48:23.765Z,97438.69
2023-04-22T15:51:09.020Z,97383.03
2023-04-22T15:53:55.463Z,97434.78
2023-04-22T15:56:40.975Z,97434.44
2023-04-22T15:59:26.238Z,97428.56
2023-04-22T16:02:13.408Z,97431.94
2023-04-22T16:04:59.694Z,97429.75
2023-04-22T16:07:45.162Z,97428.56
2023-04-22T16:10:30.752Z,97369.66
2023-04-22T16:13:15.909Z,97417.44
2023-04-22T16:16:01.362Z,97418.19
2023-04-22T16:18:47.727Z,97426.28
2023-04-22T16:21:33.187Z,97415.69
2023-04-22T16:24:18.721Z,97413.16
2023-04-22T16:27:03.964Z,97423.06
2023-04-22T16:29:49.228Z,97353.16
2023-04-22T16:32:34.361Z,97420.28
2023-04-22T16:35:19.931Z,97422.69
2023-04-22T16:38:05.423Z,97366.31
2023-04-22T16:40:50.813Z,97433.22
2023-04-22T16:43:36.155Z,97428.72
2023-04-22T16:46:21.663Z,97414.00
2023-04-22T16:49:09.078Z,97426.88
2023-04-22T16:51:55.844Z,97441.06
2023-04-22T16:54:41.349Z,97453.66
2023-04-22T16:57:27.045Z,97455.16
2023-04-22T17:00:12.631Z,97465.00
2023-04-22T17:02:57.845Z,97463.75
2023-04-22T17:05:43.835Z,97468.09
2023-04-22T17:08:29.272Z,97458.22
2023-04-22T17:11:14.485Z,97464.91
2023-04-22T17:13:59.890Z,97467.03
2023-04-22T17:16:45.124Z,97470.81
2023-04-22T17:19:30.695Z,97469.47
2023-04-22T17:22:15.879Z,97469.19
2023-04-22T17:25:01.230Z,97464.09
2023-04-22T17:27:46.386Z,97461.69
2023-04-22T17:30:31.903Z,97451.25
2023-04-22T17:33:17.340Z,97467.31
2023-04-22T17:36:03.859Z,97454.16
2023-04-22T17:38:49.195Z,97464.63
2023-04-22T17:41:34.552Z,97467.06
2023-04-22T17:44:19.993Z,97467.03
2023-04-22T17:47:06.777Z,97455.56
2023-04-22T17:49:53.385Z,97467.03
2023-04-22T17:52:38.652Z,97471.22
2023-04-22T17:55:24.198Z,97477.06
2023-04-22T17:58:09.478Z,97465.88
2023-04-22T18:00:55.066Z,97469.63
2023-04-22T18:03:40.453Z,97469.03
2023-04-22T18:06:26.745Z,97475.13
2023-04-22T18:09:11.840Z,97365.56
2023-04-22T18:11:57.145Z,97469.22
2023-04-22T18:14:42.751Z,97476.53
2023-04-22T18:17:28.328Z,97452.94
2023-04-22T18:20:18.159Z,97481.31
2023-04-22T18:23:03.839Z,97477.91
2023-04-22T18:25:49.120Z,97484.88
2023-04-22T18:28:34.687Z,97485.47
2023-04-22T18:31:20.766Z,97407.81
2023-04-22T18:34:06.171Z,97478.00
2023-04-22T18:36:51.763Z,97474.25
2023-04-22T18:39:39.403Z,97471.03
2023-04-22T18:42:24.926Z,97480.13
2023-04-22T18:45:10.989Z,97478.25
2023-04-22T18:47:56.182Z,97480.94
2023-04-22T18:50:41.851Z,97488.94
2023-04-22T18:53:27.229Z,97487.84
2023-04-22T18:56:12.702Z,97480.84
2023-04-22T18:58:58.486Z,97480.81
2023-04-22T19:01:44.307Z,97497.09
2023-04-22T19:04:29.561Z,97501.59
2023-04-22T19:07:15.355Z,97498.38
2023-04-22T19:10:00.861Z,97498.63
2023-04-22T19:12:46.224Z,97497.75
2023-04-22T19:15:31.588Z,97472.97
2023-04-22T19:18:17.018Z,97504.81
2023-04-22T19:21:02.382Z,97496.53
2023-04-22T19:23:47.981Z,97496.22
2023-04-22T19:26:33.887Z,97500.00
2023-04-22T19:29:19.049Z,97499.72
2023-04-22T19:32:04.974Z,97493.84
2023-04-22T19:34:50.245Z,97495.94
2023-04-22T19:37:35.729Z,97482.81
2023-04-22T19:40:21.211Z,97492.91
2023-04-22T19:43:06.616Z,97493.66
2023-04-22T19:45:51.848Z,97439.50
2023-04-22T19:48:37.376Z,97496.91
2023-04-22T19:51:24.705Z,97499.00
2023-04-22T19:54:11.011Z,97502.94
2023-04-22T19:56:56.625Z,97499.75
2023-04-22T19:59:42.657Z,97505.88
2023-04-22T20:02:28.562Z,97498.34
2023-04-22T20:05:14.523Z,97497.75
2023-04-22T20:08:00.814Z,97504.72
2023-04-22T20:10:47.995Z,97493.56
2023-04-22T20:13:34.274Z,97502.88
2023-04-22T20:16:19.861Z,97508.84
2023-04-22T20:19:05.068Z,97499.44
2023-04-22T20:21:50.855Z,97449.41
2023-04-22T20:24:37.775Z,97508.75
2023-04-22T20:27:25.587Z,97504.75
2023-04-22T20:30:12.179Z,97506.78
2023-04-22T20:32:57.528Z,97451.16
2023-04-22T20:35:43.592Z,97435.06
2023-04-22T20:38:29.003Z,97510.50
2023-04-22T20:41:16.075Z,97507.94
2023-04-22T20:44:02.871Z,97501.66
2023-04-22T20:46:48.220Z,97502.06
2023-04-22T20:49:33.326Z,97508.88
2023-04-22T20:52:21.673Z,97498.22
2023-04-22T20:55:08.991Z,97457.66
2023-04-22T20:57:54.447Z,97507.00
2023-04-22T21:00:40.199Z,97509.78
2023-04-22T21:03:27.296Z,97505.28
2023-04-22T21:06:12.884Z,97507.00
2023-04-22T21:08:58.606Z,97508.44
2023-04-22T21:11:44.082Z,97503.88
2023-04-22T21:14:29.945Z,97507.09
2023-04-22T21:17:29.594Z,97506.78
2023-04-22T21:20:14.918Z,97508.31
2023-04-22T21:23:01.954Z,97437.22
2023-04-22T21:25:47.703Z,97488.03
2023-04-22T21:28:33.340Z,97430.31
2023-04-22T21:31:19.064Z,97503.34
2023-04-22T21:34:04.128Z,97503.34
2023-04-22T21:36:49.414Z,97509.88
2023-04-22T21:39:35.185Z,97504.50
2023-04-22T21:42:20.420Z,97505.19
2023-04-22T21:45:06.290Z,97506.06
2023-04-22T21:47:51.789Z,97505.28
2023-04-22T21:50:37.126Z,97425.22
2023-04-22T21:53:22.488Z,97505.91
2023-04-22T21:56:07.691Z,97518.34
2023-04-22T21:58:53.506Z,97509.63
2023-04-22T22:01:38.735Z,97510.22
2023-04-22T22:04:24.436Z,97520.75
2023-04-22T22:07:09.729Z,97514.50
2023-04-22T22:09:55.260Z,97522.09
2023-04-22T22:12:40.880Z,97521.09
2023-04-22T22:15:26.368Z,97517.09
2023-04-22T22:18:11.805Z,97519.31
2023-04-22T22:20:56.976Z,97517.00
2023-04-22T22:23:42.407Z,97519.81
2023-04-22T22:26:28.200Z,97519.16
2023-04-22T22:29:13.529Z,97517.06
2023-04-22T22:31:58.739Z,97522.47
2023-04-22T22:34:44.817Z,97522.00
2023-04-22T22:37:30.296Z,97524.03
2023-04-22T22:40:15.494Z,97525.81
2023-04-22T22:43:00.928Z,97518.72
2023-04-22T22:45:46.387Z,97516.53
2023-04-22T22:48:31.819Z,97518.13
2023-04-22T22:51:18.482Z,97518.66
2023-04-22T22:54:04.932Z,97522.34
2023-04-22T22:56:51.649Z,97517.03
2023-04-22T22:59:37.919Z,97515.66
2023-04-22T23:02:23.991Z,97509.72
2023-04-22T23:05:10.904Z,97504.41
2023-04-22T23:07:57.389Z,97510.31
2023-04-22T23:10:42.827Z,97499.81
2023-04-22T23:13:28.395Z,97511.97
2023-04-22T23:16:13.744Z,97493.34
2023-04-22T23:18:59.988Z,97501.34
2023-04-22T23:21:46.087Z,97481.53
2023-04-22T23:24:31.542Z,97448.31
2023-04-22T23:27:17.470Z,97496.31
2023-04-22T23:30:04.100Z,97500.44
2023-04-22T23:32:51.914Z,97462.34
2023-04-22T23:35:41.693Z,97503.28
2023-04-22T23:38:30.410Z,97508.13
2023-04-22T23:41:16.020Z,97492.34
2023-04-22T23:44:01.180Z,97441.91
2023-04-22T23:46:46.562Z,97437.25
2023-04-22T23:49:32.216Z,97495.13
2023-04-22T23:52:17.716Z,97509.22
2023-04-22T23:55:03.705Z,97495.78
2023-04-22T23:57:49.516Z,97502.47
